Portada
METAR-TAF:

METAR-TAF

Aeroports :

Hagåtña, Guam, Estats Units d'Amèrica

latitud: 13-29N, longitud: 144-48E, altitud: 91 m

Observació

L'informe es va fer fa 52 minuts, a les 16:54 UTC
Vent calma
Temperatura 26°C
Humitat 100%
Pressió 1011 hPa
Visibilitat: 16.1 km
Escasses núvols a una alçada de 12000 ft

METAR: PGUM 231654Z 00000KT 10SM FEW120 26/26 A2985 RMK AO2 RAB1556E47 SLP100 P0002 T02560256

Hora: 03:46 (17:46 UTC)

Pronòstic

L'informe es va fer fa 16 minuts, a les 17:30 UTC
Pronòstic vàlid del 23 a les 18 UTC al 24 a les 24 UTC
Vent 5 kt del Sud-Est
Visibilitat: 10 km
Escasses núvols a una alçada de 1500 ft
Núvols disperses a una alçada de 5000 ft
Cel ennuvolat a una alçada de 12000 ft
xàfecs en les proximitats

TAF: PGUM 231730Z 2318/2424 14005KT P6SM VCSH FEW015 SCT050 BKN120

Observacions i pronòstics meteorològics de més de 4000 aeroports (METAR i TAF).

Les estacions disponibles són els punts grocs i vermells al mapa.

Posi el ratolí al punt desitjat per veure el nom de l'estació.

Feu clic per veure les observacions i els pronòstics meteorològics.

Per canviar el mapa: feu clic els botons verds amb una creu de color negre per apropar; al botó verd amb un guió per allunyar la imatge; o en les fletxes verdes per a mapes adjacents.


METAR-TAF: